Time;durP1;ratioP1;P1;durP2;ratioP2;P2;SDS_P1;SDS_P2;PMS_P1;PMS_P2;Temp;Humidity;BMP_temperature;BMP_pressure;BME280_temperature;BME280_humidity;BME280_pressure;Samples;Min_cycle;Max_cycle;Signal;HPM_P1;HPM_P2
2023/06/24 00:02:16;;;;;;;5.72;5.15;;;;;;;;;;5003430;28;93857;-79
2023/06/24 00:04:43;;;;;;;6.38;4.32;;;;;;;;;;5008915;28;92985;-79
2023/06/24 00:07:09;;;;;;;7.18;4.85;;;;;;;;;;5003406;28;92503;-79
2023/06/24 00:09:37;;;;;;;8.13;5.07;;;;;;;;;;5007539;28;92145;-80
2023/06/24 00:12:04;;;;;;;5.15;4.75;;;;;;;;;;4998203;28;92157;-80
2023/06/24 00:14:31;;;;;;;5.28;4.80;;;;;;;;;;5003861;28;92277;-80
2023/06/24 00:16:58;;;;;;;6.75;4.75;;;;;;;;;;5014293;28;95135;-79
2023/06/24 00:19:25;;;;;;;4.75;4.35;;;;;;;;;;5012092;28;92292;-79
2023/06/24 00:21:52;;;;;;;8.20;4.85;;;;;;;;;;4999687;28;92367;-80
2023/06/24 00:24:20;;;;;;;5.97;5.38;;;;;;;;;;5017038;28;92435;-79
2023/06/24 00:26:46;;;;;;;7.20;4.55;;;;;;;;;;5001339;28;92411;-80
2023/06/24 00:29:13;;;;;;;11.80;4.50;;;;;;;;;;4996947;28;93019;-79
2023/06/24 00:31:40;;;;;;;5.53;4.50;;;;;;;;;;5005627;28;92968;-80
2023/06/24 00:34:07;;;;;;;6.80;5.13;;;;;;;;;;5012228;28;92018;-79
2023/06/24 00:36:37;;;;;;;8.10;5.47;;;;;;;;;;4993242;28;94811;-80
2023/06/24 00:39:05;;;;;;;5.65;5.00;;;;;;;;;;4986034;28;95287;-80
2023/06/24 00:41:33;;;;;;;7.35;5.10;;;;;;;;;;4994320;28;94859;-79
2023/06/24 00:44:00;;;;;;;7.95;5.88;;;;;;;;;;4999667;28;92550;-80
2023/06/24 00:46:28;;;;;;;8.00;5.93;;;;;;;;;;5015947;28;95642;-80
2023/06/24 00:48:55;;;;;;;6.72;5.55;;;;;;;;;;5004139;28;92317;-80
2023/06/24 00:51:26;;;;;;;6.38;5.50;;;;;;;;;;5019029;28;93737;-80
2023/06/24 00:53:53;;;;;;;8.88;5.60;;;;;;;;;;4997144;28;93140;-80
2023/06/24 00:56:21;;;;;;;7.38;5.55;;;;;;;;;;4987648;28;92905;-80
2023/06/24 00:58:48;;;;;;;5.82;5.05;;;;;;;;;;5002021;28;92075;-79
2023/06/24 01:01:17;;;;;;;5.70;4.97;;;;;;;;;;5009842;28;92129;-80
2023/06/24 01:03:43;;;;;;;7.00;5.93;;;;;;;;;;4984639;28;94701;-79
2023/06/24 01:06:11;;;;;;;7.57;6.38;;;;;;;;;;5009297;28;94451;-80
2023/06/24 01:08:38;;;;;;;10.68;7.13;;;;;;;;;;5001378;28;92449;-79
2023/06/24 01:11:04;;;;;;;9.75;5.50;;;;;;;;;;5007360;28;92354;-79
2023/06/24 01:13:31;;;;;;;6.65;5.03;;;;;;;;;;5014936;28;92388;-80
2023/06/24 01:16:00;;;;;;;7.35;5.53;;;;;;;;;;5001253;28;92352;-80
2023/06/24 01:18:36;;;;;;;7.05;5.22;;;;;;;;;;4999474;28;94231;-79
2023/06/24 01:21:04;;;;;;;10.40;6.07;;;;;;;;;;5000551;28;92900;-80
2023/06/24 01:23:57;;;;;;;6.82;6.13;;;;;;;;;;5014956;28;92864;-80
2023/06/24 01:26:23;;;;;;;7.05;5.47;;;;;;;;;;4994751;28;92341;-80
2023/06/24 01:28:59;;;;;;;7.13;5.32;;;;;;;;;;4998898;28;93204;-80
2023/06/24 01:31:44;;;;;;;12.95;6.63;;;;;;;;;;5005179;28;94976;-80
2023/06/24 01:34:23;;;;;;;8.57;5.65;;;;;;;;;;5002311;28;94809;-80
2023/06/24 01:37:09;;;;;;;8.38;5.60;;;;;;;;;;4997386;28;92296;-79
2023/06/24 01:39:37;;;;;;;7.18;5.97;;;;;;;;;;4995913;28;93087;-79
2023/06/24 01:42:08;;;;;;;8.20;5.97;;;;;;;;;;5009090;28;92449;-79
2023/06/24 01:44:35;;;;;;;7.40;5.22;;;;;;;;;;4998309;28;92378;-79
2023/06/24 01:47:04;;;;;;;8.50;6.10;;;;;;;;;;5001069;28;92925;-79
2023/06/24 01:49:33;;;;;;;6.95;5.45;;;;;;;;;;4996205;28;91960;-79
2023/06/24 01:52:01;;;;;;;6.25;5.70;;;;;;;;;;4988533;28;94765;-79
2023/06/24 01:54:28;;;;;;;7.55;6.05;;;;;;;;;;5008437;28;92565;-79
2023/06/24 01:56:56;;;;;;;6.97;5.57;;;;;;;;;;4993693;28;94482;-79
2023/06/24 01:59:23;;;;;;;6.32;5.72;;;;;;;;;;4991468;28;92393;-79
2023/06/24 02:01:51;;;;;;;9.70;6.18;;;;;;;;;;5011285;28;94878;-79
2023/06/24 02:04:18;;;;;;;7.43;6.68;;;;;;;;;;5005580;28;95450;-79
2023/06/24 02:06:46;;;;;;;6.80;6.10;;;;;;;;;;4999116;28;93382;-79
2023/06/24 02:09:14;;;;;;;6.88;6.10;;;;;;;;;;4995032;28;92386;-79
2023/06/24 02:11:41;;;;;;;6.78;6.10;;;;;;;;;;5000628;28;94178;-80
2023/06/24 02:14:10;;;;;;;8.15;6.10;;;;;;;;;;4994404;28;94309;-80
2023/06/24 02:16:36;;;;;;;9.88;6.30;;;;;;;;;;4999479;28;94284;-80
2023/06/24 02:19:04;;;;;;;6.93;6.28;;;;;;;;;;5003241;28;92985;-80
2023/06/24 02:21:31;;;;;;;6.88;6.28;;;;;;;;;;4998469;28;94752;-80
2023/06/24 02:23:59;;;;;;;7.03;6.43;;;;;;;;;;5015299;28;92460;-80
2023/06/24 02:26:25;;;;;;;7.00;6.30;;;;;;;;;;4995595;28;94217;-80
2023/06/24 02:28:52;;;;;;;7.05;6.45;;;;;;;;;;5004673;28;94658;-80
2023/06/24 02:31:19;;;;;;;8.75;6.35;;;;;;;;;;5002640;28;92795;-79
2023/06/24 02:33:46;;;;;;;9.10;6.32;;;;;;;;;;4979569;28;93689;-80
2023/06/24 02:36:13;;;;;;;7.68;6.05;;;;;;;;;;5017454;28;95482;-79
2023/06/24 02:38:39;;;;;;;9.15;6.75;;;;;;;;;;5005613;28;92407;-80
2023/06/24 02:41:06;;;;;;;11.40;6.97;;;;;;;;;;5016937;28;94417;-79
2023/06/24 02:43:32;;;;;;;7.80;6.13;;;;;;;;;;5019001;28;92259;-80
2023/06/24 02:46:01;;;;;;;10.18;6.25;;;;;;;;;;4983401;28;95165;-80
2023/06/24 02:48:29;;;;;;;8.85;6.50;;;;;;;;;;5006521;28;93848;-80
2023/06/24 02:50:59;;;;;;;7.20;6.23;;;;;;;;;;4994578;28;94165;-79
2023/06/24 02:53:27;;;;;;;12.88;7.13;;;;;;;;;;5006260;28;92165;-80
2023/06/24 02:55:55;;;;;;;6.53;5.80;;;;;;;;;;4993668;28;92804;-79
2023/06/24 02:58:22;;;;;;;6.93;6.25;;;;;;;;;;5003707;28;92050;-79
2023/06/24 03:00:58;;;;;;;8.35;7.38;;;;;;;;;;5006071;28;92353;-79
2023/06/24 03:03:43;;;;;;;7.82;6.30;;;;;;;;;;5020737;28;94765;-80
2023/06/24 03:06:12;;;;;;;11.18;7.20;;;;;;;;;;5004643;28;95877;-79
2023/06/24 03:08:40;;;;;;;6.93;6.13;;;;;;;;;;4995062;28;95294;-79
2023/06/24 03:11:08;;;;;;;7.75;6.55;;;;;;;;;;5012589;28;95641;-79
2023/06/24 03:13:35;;;;;;;7.10;6.40;;;;;;;;;;5006199;28;94143;-80
2023/06/24 03:16:12;;;;;;;6.65;6.05;;;;;;;;;;4999935;28;92415;-79
2023/06/24 03:19:05;;;;;;;9.10;6.72;;;;;;;;;;4996956;28;92732;-80
2023/06/24 03:21:33;;;;;;;6.70;6.03;;;;;;;;;;5017521;28;93084;-80
2023/06/24 03:24:09;;;;;;;9.77;6.80;;;;;;;;;;5003107;28;93943;-79
2023/06/24 03:26:46;;;;;;;8.40;7.50;;;;;;;;;;4982703;28;94391;-79
2023/06/24 03:29:13;;;;;;;10.75;7.47;;;;;;;;;;5003577;28;93994;-79
2023/06/24 03:31:50;;;;;;;9.63;7.03;;;;;;;;;;4994425;28;94409;-79
2023/06/24 03:34:20;;;;;;;8.25;7.00;;;;;;;;;;4994523;28;92877;-79
2023/06/24 03:36:47;;;;;;;9.20;7.47;;;;;;;;;;5011109;28;94808;-79
2023/06/24 03:39:14;;;;;;;7.22;6.63;;;;;;;;;;4996465;28;92400;-79
2023/06/24 03:41:42;;;;;;;12.48;7.07;;;;;;;;;;5004741;28;92430;-79
2023/06/24 03:44:10;;;;;;;13.70;7.85;;;;;;;;;;5014731;28;96040;-80
2023/06/24 03:46:37;;;;;;;9.85;6.75;;;;;;;;;;4981401;28;95750;-79
2023/06/24 03:49:04;;;;;;;13.23;7.25;;;;;;;;;;5004135;28;92314;-79
2023/06/24 03:51:31;;;;;;;8.35;6.80;;;;;;;;;;4998319;28;92342;-80
2023/06/24 03:53:57;;;;;;;7.97;6.80;;;;;;;;;;4978760;28;94984;-79
2023/06/24 03:56:24;;;;;;;7.15;6.45;;;;;;;;;;4981609;28;93331;-80
2023/06/24 03:58:50;;;;;;;8.25;6.63;;;;;;;;;;4996509;28;92247;-79
2023/06/24 04:01:20;;;;;;;7.50;6.22;;;;;;;;;;4994793;28;95342;-79
2023/06/24 04:03:47;;;;;;;10.35;7.03;;;;;;;;;;5009265;28;92318;-80
2023/06/24 04:06:14;;;;;;;6.75;6.13;;;;;;;;;;5001290;28;92365;-80
2023/06/24 04:08:42;;;;;;;13.23;6.97;;;;;;;;;;5001670;28;92445;-80
2023/06/24 04:11:09;;;;;;;8.98;6.78;;;;;;;;;;4990301;28;92472;-79
2023/06/24 04:13:36;;;;;;;9.38;6.55;;;;;;;;;;4995951;28;92201;-80
2023/06/24 04:16:04;;;;;;;7.63;6.57;;;;;;;;;;4992552;28;94721;-79
2023/06/24 04:18:30;;;;;;;19.02;6.30;;;;;;;;;;5004660;28;94018;-79
2023/06/24 04:20:57;;;;;;;8.13;7.18;;;;;;;;;;4997344;28;94698;-79
2023/06/24 04:23:24;;;;;;;8.88;7.18;;;;;;;;;;5007155;28;95555;-80
2023/06/24 04:25:50;;;;;;;8.43;7.47;;;;;;;;;;4997610;28;94728;-80
2023/06/24 04:28:20;;;;;;;8.25;6.72;;;;;;;;;;4995398;28;98222;-79
2023/06/24 04:30:46;;;;;;;13.13;8.05;;;;;;;;;;5001270;28;94627;-79
2023/06/24 04:33:13;;;;;;;12.55;8.90;;;;;;;;;;5012984;28;94562;-79
2023/06/24 04:35:39;;;;;;;10.15;7.85;;;;;;;;;;4998822;28;92531;-79
2023/06/24 04:38:06;;;;;;;10.90;9.20;;;;;;;;;;4998439;28;94630;-79
2023/06/24 04:40:32;;;;;;;10.65;8.45;;;;;;;;;;4998336;28;92764;-79
2023/06/24 04:43:02;;;;;;;10.07;8.60;;;;;;;;;;4995778;28;91992;-79
2023/06/24 04:45:28;;;;;;;15.50;8.25;;;;;;;;;;4996008;28;92885;-80
2023/06/24 04:47:55;;;;;;;11.10;9.48;;;;;;;;;;5010280;28;92379;-79
2023/06/24 04:50:21;;;;;;;9.27;8.20;;;;;;;;;;5000300;28;94983;-79
2023/06/24 04:52:54;;;;;;;10.10;8.23;;;;;;;;;;4994688;28;93188;-79
2023/06/24 04:55:21;;;;;;;15.82;8.95;;;;;;;;;;4996676;28;92171;-79
2023/06/24 04:57:48;;;;;;;9.40;8.45;;;;;;;;;;4998088;28;92980;-79
2023/06/24 05:00:14;;;;;;;12.77;8.18;;;;;;;;;;4999661;28;92282;-79
2023/06/24 05:02:41;;;;;;;11.35;8.43;;;;;;;;;;5006126;28;92333;-79
2023/06/24 05:05:08;;;;;;;11.18;8.48;;;;;;;;;;5004167;28;92529;-79
2023/06/24 05:07:34;;;;;;;8.98;7.47;;;;;;;;;;4990470;28;91830;-79
2023/06/24 05:10:01;;;;;;;9.20;7.95;;;;;;;;;;5005227;28;92412;-79
2023/06/24 05:12:27;;;;;;;9.13;7.35;;;;;;;;;;5009884;28;92207;-79
2023/06/24 05:14:54;;;;;;;10.38;6.68;;;;;;;;;;4996877;28;95031;-79
2023/06/24 05:17:21;;;;;;;9.55;7.05;;;;;;;;;;4998857;28;92417;-79
2023/06/24 05:19:47;;;;;;;7.32;6.43;;;;;;;;;;4992593;28;96063;-79
2023/06/24 05:22:14;;;;;;;7.45;6.75;;;;;;;;;;4986231;28;92377;-79
2023/06/24 05:24:41;;;;;;;7.75;6.95;;;;;;;;;;5008596;28;92469;-79
2023/06/24 05:27:07;;;;;;;11.57;7.38;;;;;;;;;;5004794;28;92261;-79
2023/06/24 05:29:34;;;;;;;7.82;6.93;;;;;;;;;;5005968;28;92970;-79
2023/06/24 05:32:03;;;;;;;9.35;6.75;;;;;;;;;;4991739;28;92125;-79
2023/06/24 05:34:30;;;;;;;5.68;5.07;;;;;;;;;;5002574;28;92572;-79
2023/06/24 05:36:57;;;;;;;9.10;5.22;;;;;;;;;;5004757;28;92380;-79
2023/06/24 05:39:24;;;;;;;8.80;5.65;;;;;;;;;;5000451;28;94660;-79
2023/06/24 05:41:50;;;;;;;9.57;5.32;;;;;;;;;;4998664;28;94118;-79
2023/06/24 05:44:18;;;;;;;6.43;5.35;;;;;;;;;;4999744;28;92104;-80
2023/06/24 05:46:45;;;;;;;8.80;4.78;;;;;;;;;;5002428;28;92589;-79
2023/06/24 05:49:11;;;;;;;7.82;4.90;;;;;;;;;;5002191;28;93042;-79
2023/06/24 05:51:38;;;;;;;6.88;5.60;;;;;;;;;;4995390;28;92562;-79
2023/06/24 05:54:05;;;;;;;6.38;5.00;;;;;;;;;;4983588;28;92449;-79
2023/06/24 05:56:32;;;;;;;8.18;4.80;;;;;;;;;;5004435;28;92052;-79
2023/06/24 05:58:58;;;;;;;5.45;4.80;;;;;;;;;;5011648;28;92455;-79
2023/06/24 06:01:25;;;;;;;6.45;5.32;;;;;;;;;;4994845;28;93768;-79
2023/06/24 06:03:52;;;;;;;6.70;4.53;;;;;;;;;;4993912;28;94762;-79
2023/06/24 06:06:21;;;;;;;5.93;4.38;;;;;;;;;;4995412;28;94071;-79
2023/06/24 06:08:47;;;;;;;10.27;4.43;;;;;;;;;;4981701;28;92527;-79
2023/06/24 06:11:14;;;;;;;4.90;3.85;;;;;;;;;;4990966;28;92944;-79
2023/06/24 06:13:41;;;;;;;5.05;4.00;;;;;;;;;;5002388;28;92317;-80
2023/06/24 06:16:07;;;;;;;6.78;4.20;;;;;;;;;;4993464;28;95989;-79
2023/06/24 06:18:34;;;;;;;7.40;3.92;;;;;;;;;;4993216;28;93006;-78
2023/06/24 06:21:00;;;;;;;5.30;4.72;;;;;;;;;;5005091;28;92744;-79
2023/06/24 06:23:27;;;;;;;5.07;3.78;;;;;;;;;;4999280;28;93035;-79
2023/06/24 06:25:55;;;;;;;11.15;4.35;;;;;;;;;;5012899;28;92567;-79
2023/06/24 06:28:21;;;;;;;4.00;3.70;;;;;;;;;;4997407;28;95082;-79
2023/06/24 06:30:48;;;;;;;9.85;4.18;;;;;;;;;;5007115;28;92085;-80
2023/06/24 06:33:14;;;;;;;6.20;4.63;;;;;;;;;;4990069;28;95896;-79
2023/06/24 06:35:41;;;;;;;7.47;4.43;;;;;;;;;;5007352;28;93091;-79
2023/06/24 06:38:08;;;;;;;5.95;4.00;;;;;;;;;;4991856;28;92509;-82
2023/06/24 06:40:35;;;;;;;4.22;3.80;;;;;;;;;;5003982;28;92457;-79
2023/06/24 06:43:02;;;;;;;4.72;3.90;;;;;;;;;;4996776;28;92765;-80
2023/06/24 06:45:28;;;;;;;8.98;4.18;;;;;;;;;;4997630;28;92384;-80
2023/06/24 06:47:58;;;;;;;3.67;3.10;;;;;;;;;;4985552;28;92513;-79
2023/06/24 06:50:24;;;;;;;9.98;3.35;;;;;;;;;;5009603;28;93087;-79
2023/06/24 06:52:51;;;;;;;3.85;3.40;;;;;;;;;;5004194;28;94886;-79
2023/06/24 06:55:17;;;;;;;7.55;3.95;;;;;;;;;;5011061;28;94387;-79
2023/06/24 06:57:44;;;;;;;5.18;3.30;;;;;;;;;;5013928;28;95051;-80
2023/06/24 07:00:11;;;;;;;5.20;3.42;;;;;;;;;;5015431;28;95963;-80
2023/06/24 07:02:38;;;;;;;6.20;3.70;;;;;;;;;;5002758;28;92484;-79
2023/06/24 07:05:05;;;;;;;6.53;3.88;;;;;;;;;;5000479;28;92426;-79
2023/06/24 07:07:32;;;;;;;9.10;3.45;;;;;;;;;;4991564;28;92983;-79
2023/06/24 07:10:02;;;;;;;4.93;3.33;;;;;;;;;;4992964;28;92183;-78
2023/06/24 07:12:28;;;;;;;3.42;3.03;;;;;;;;;;5010624;28;92847;-79
2023/06/24 07:14:55;;;;;;;4.60;3.15;;;;;;;;;;4997456;28;93747;-79
2023/06/24 07:17:22;;;;;;;5.10;3.13;;;;;;;;;;5006648;28;94897;-79
2023/06/24 07:19:48;;;;;;;5.82;2.80;;;;;;;;;;4995912;28;94215;-79
2023/06/24 07:22:15;;;;;;;3.85;2.92;;;;;;;;;;5013620;28;92445;-79
2023/06/24 07:24:42;;;;;;;5.20;3.28;;;;;;;;;;5015057;28;92234;-79
2023/06/24 07:27:08;;;;;;;4.80;2.83;;;;;;;;;;5006576;28;92192;-79
2023/06/24 07:29:35;;;;;;;7.57;2.80;;;;;;;;;;5002121;28;93714;-79
2023/06/24 07:32:01;;;;;;;6.30;3.00;;;;;;;;;;4993443;28;92392;-79
2023/06/24 07:34:29;;;;;;;4.10;3.25;;;;;;;;;;5012578;28;91947;-79
2023/06/24 07:36:55;;;;;;;9.60;2.83;;;;;;;;;;5005964;28;93071;-79
2023/06/24 07:39:22;;;;;;;4.63;3.33;;;;;;;;;;5015650;28;93583;-78
2023/06/24 07:41:49;;;;;;;7.15;3.20;;;;;;;;;;5003363;28;94688;-79
2023/06/24 07:44:16;;;;;;;4.43;3.25;;;;;;;;;;5005348;28;92304;-79
2023/06/24 07:46:43;;;;;;;5.47;3.17;;;;;;;;;;5011726;28;92254;-79
2023/06/24 07:49:09;;;;;;;2.67;2.47;;;;;;;;;;5015687;28;92017;-79
2023/06/24 07:51:36;;;;;;;3.60;3.10;;;;;;;;;;5007267;28;92470;-79
2023/06/24 07:54:03;;;;;;;3.20;2.90;;;;;;;;;;5003950;28;93132;-79
2023/06/24 07:56:30;;;;;;;4.40;3.08;;;;;;;;;;5011236;28;92287;-79
2023/06/24 07:58:59;;;;;;;5.57;2.90;;;;;;;;;;4980544;28;93876;-79
2023/06/24 08:01:26;;;;;;;5.32;3.15;;;;;;;;;;4995639;28;92434;-79
2023/06/24 08:03:53;;;;;;;5.30;2.67;;;;;;;;;;5003174;28;92399;-79
2023/06/24 08:06:20;;;;;;;5.55;3.63;;;;;;;;;;4994522;28;94934;-79
2023/06/24 08:08:46;;;;;;;5.47;3.20;;;;;;;;;;5006923;28;92433;-79
2023/06/24 08:11:13;;;;;;;3.78;2.63;;;;;;;;;;5006342;28;93873;-80
2023/06/24 08:13:39;;;;;;;3.20;2.88;;;;;;;;;;5005711;28;92166;-80
2023/06/24 08:16:06;;;;;;;6.50;3.30;;;;;;;;;;5018196;28;92341;-80
2023/06/24 08:18:33;;;;;;;6.78;3.17;;;;;;;;;;5003604;28;93101;-79
2023/06/24 08:21:03;;;;;;;7.60;2.80;;;;;;;;;;5005008;28;93289;-79
2023/06/24 08:23:29;;;;;;;5.57;2.78;;;;;;;;;;4999369;28;92326;-79
2023/06/24 08:25:56;;;;;;;7.35;3.22;;;;;;;;;;5021589;28;93630;-79
2023/06/24 08:28:37;;;;;;;;;;;;;;;;;;5000195;28;93611;-80
2023/06/24 08:31:04;;;;;;;6.72;2.95;;;;;;;;;;5010294;28;94553;-80
2023/06/24 08:33:30;;;;;;;3.65;3.33;;;;;;;;;;5009284;28;93964;-79
2023/06/24 08:35:57;;;;;;;5.65;2.88;;;;;;;;;;5018775;28;92025;-79
2023/06/24 08:38:23;;;;;;;5.85;2.90;;;;;;;;;;5009535;28;94162;-79
2023/06/24 08:40:50;;;;;;;7.88;3.35;;;;;;;;;;5019519;28;92750;-79
2023/06/24 08:43:17;;;;;;;7.32;2.97;;;;;;;;;;5007918;28;92064;-79
2023/06/24 08:45:43;;;;;;;4.88;2.55;;;;;;;;;;5013716;28;93358;-79
2023/06/24 08:48:10;;;;;;;4.55;3.45;;;;;;;;;;5014554;28;93435;-79
2023/06/24 08:50:40;;;;;;;5.18;3.45;;;;;;;;;;5014545;28;91945;-79
2023/06/24 08:53:08;;;;;;;3.40;2.95;;;;;;;;;;5008515;28;92917;-79
2023/06/24 08:55:39;;;;;;;5.28;3.20;;;;;;;;;;5000523;28;95251;-79
2023/06/24 08:58:06;;;;;;;4.78;2.80;;;;;;;;;;5018557;28;92469;-79
2023/06/24 09:00:33;;;;;;;4.30;3.60;;;;;;;;;;5006581;28;93686;-80
2023/06/24 09:03:00;;;;;;;8.02;4.35;;;;;;;;;;5000531;28;92416;-79
2023/06/24 09:05:27;;;;;;;6.43;3.30;;;;;;;;;;4999842;28;92233;-80
2023/06/24 09:07:54;;;;;;;4.85;3.35;;;;;;;;;;5001019;28;92450;-79
2023/06/24 09:10:33;;;;;;;5.32;4.13;;;;;;;;;;4998493;28;92151;-79
2023/06/24 09:13:01;;;;;;;5.47;3.22;;;;;;;;;;5005052;28;91954;-80
2023/06/24 09:15:34;;;;;;;5.13;3.42;;;;;;;;;;5005623;28;92588;-79
2023/06/24 09:18:04;;;;;;;7.68;3.80;;;;;;;;;;5023848;28;94832;-79
2023/06/24 09:20:31;;;;;;;7.40;3.88;;;;;;;;;;5000808;28;94953;-79
2023/06/24 09:23:03;;;;;;;4.28;3.30;;;;;;;;;;5010983;28;93464;-79
2023/06/24 09:25:30;;;;;;;16.48;3.25;;;;;;;;;;5016615;28;93590;-80
2023/06/24 09:28:03;;;;;;;3.45;2.83;;;;;;;;;;5009711;28;92971;-80
2023/06/24 09:30:29;;;;;;;7.18;3.20;;;;;;;;;;5017462;28;92518;-80
2023/06/24 09:32:56;;;;;;;6.82;3.63;;;;;;;;;;5014218;28;93116;-80
2023/06/24 09:35:24;;;;;;;13.75;4.00;;;;;;;;;;5018595;28;93216;-80
2023/06/24 09:37:51;;;;;;;3.88;3.08;;;;;;;;;;5020769;28;91571;-80
2023/06/24 09:40:19;;;;;;;4.88;3.85;;;;;;;;;;5011069;28;92443;-79
2023/06/24 09:42:51;;;;;;;4.05;3.20;;;;;;;;;;5009540;28;92714;-80
2023/06/24 09:45:22;;;;;;;11.15;3.47;;;;;;;;;;5016679;28;94902;-80
2023/06/24 09:47:48;;;;;;;10.82;3.95;;;;;;;;;;5004065;28;95094;-80
2023/06/24 09:50:15;;;;;;;5.57;3.20;;;;;;;;;;5008112;28;92053;-80
2023/06/24 09:52:44;;;;;;;7.55;4.30;;;;;;;;;;5001256;28;92291;-80
2023/06/24 09:55:14;;;;;;;5.63;3.75;;;;;;;;;;5007387;28;92291;-80
2023/06/24 09:57:45;;;;;;;6.43;3.92;;;;;;;;;;5013104;28;92430;-80
2023/06/24 10:00:15;;;;;;;4.28;3.65;;;;;;;;;;4988934;28;94896;-80
2023/06/24 10:02:42;;;;;;;7.30;3.90;;;;;;;;;;5014628;28;91941;-79
2023/06/24 10:05:09;;;;;;;6.63;4.00;;;;;;;;;;5016591;28;92167;-80
2023/06/24 10:07:36;;;;;;;9.30;3.78;;;;;;;;;;5024475;28;92014;-80
2023/06/24 10:10:03;;;;;;;8.75;3.65;;;;;;;;;;4992326;28;94760;-80
2023/06/24 10:12:31;;;;;;;3.30;2.72;;;;;;;;;;5005130;28;93945;-80
2023/06/24 10:14:59;;;;;;;14.23;3.55;;;;;;;;;;5003643;28;92271;-80
2023/06/24 10:17:26;;;;;;;4.13;3.53;;;;;;;;;;5007270;28;92869;-80
2023/06/24 10:19:54;;;;;;;5.60;3.97;;;;;;;;;;5005193;28;92568;-80
2023/06/24 10:22:25;;;;;;;6.78;3.45;;;;;;;;;;5003528;28;92259;-81
2023/06/24 10:24:53;;;;;;;7.95;4.82;;;;;;;;;;5011457;28;92204;-80
2023/06/24 10:27:23;;;;;;;7.80;4.25;;;;;;;;;;5006179;28;92842;-80
2023/06/24 10:29:53;;;;;;;4.38;3.53;;;;;;;;;;5014159;28;92148;-80
2023/06/24 10:32:21;;;;;;;7.72;4.88;;;;;;;;;;5006251;28;92454;-80
2023/06/24 10:34:55;;;;;;;7.28;4.82;;;;;;;;;;4992591;28;94830;-80
2023/06/24 10:37:24;;;;;;;8.20;4.45;;;;;;;;;;4996823;28;92529;-79
2023/06/24 10:40:00;;;;;;;5.82;4.13;;;;;;;;;;5007529;28;93023;-80
2023/06/24 10:42:27;;;;;;;7.55;3.63;;;;;;;;;;5004127;28;92127;-79
2023/06/24 10:44:55;;;;;;;5.65;3.72;;;;;;;;;;5009791;28;92110;-80
2023/06/24 10:47:22;;;;;;;6.50;3.85;;;;;;;;;;5016360;28;92342;-80
2023/06/24 10:49:50;;;;;;;3.30;3.00;;;;;;;;;;5014949;28;92292;-80
2023/06/24 10:52:21;;;;;;;7.10;4.10;;;;;;;;;;5008701;28;91988;-79
2023/06/24 10:54:48;;;;;;;6.10;4.03;;;;;;;;;;5004053;28;94945;-80
2023/06/24 10:57:15;;;;;;;10.25;4.05;;;;;;;;;;5003722;28;92176;-80
2023/06/24 10:59:42;;;;;;;7.07;3.30;;;;;;;;;;5001030;28;94836;-79
2023/06/24 11:02:36;;;;;;;3.88;3.55;;;;;;;;;;5003723;28;93249;-80
2023/06/24 11:05:04;;;;;;;4.05;3.42;;;;;;;;;;5015278;28;92958;-79
2023/06/24 11:07:34;;;;;;;23.98;12.43;;;;;;;;;;5018280;28;94959;-80
2023/06/24 11:10:03;;;;;;;48.58;21.17;;;;;;;;;;5001995;28;92440;-80
2023/06/24 11:12:30;;;;;;;14.30;6.90;;;;;;;;;;5006780;28;95527;-80
2023/06/24 11:14:58;;;;;;;6.63;5.13;;;;;;;;;;5018080;28;94628;-80
2023/06/24 11:17:25;;;;;;;9.60;5.80;;;;;;;;;;5010800;28;91590;-80
2023/06/24 11:19:55;;;;;;;11.30;4.63;;;;;;;;;;5008196;28;92478;-80
2023/06/24 11:22:24;;;;;;;5.88;4.15;;;;;;;;;;5007568;28;92461;-80
2023/06/24 11:24:50;;;;;;;13.05;4.50;;;;;;;;;;5018993;28;94527;-80
2023/06/24 11:27:23;;;;;;;4.97;3.95;;;;;;;;;;5010616;28;94003;-80
2023/06/24 11:29:51;;;;;;;6.90;4.18;;;;;;;;;;5005169;28;94038;-81
2023/06/24 11:32:17;;;;;;;10.50;5.47;;;;;;;;;;5009211;28;95575;-80
2023/06/24 11:34:44;;;;;;;8.60;4.70;;;;;;;;;;5010084;28;92418;-80
2023/06/24 11:37:12;;;;;;;20.98;5.47;;;;;;;;;;5009772;28;93281;-80
2023/06/24 11:39:39;;;;;;;14.38;5.63;;;;;;;;;;5009623;28;92494;-80
2023/06/24 11:42:06;;;;;;;7.63;4.75;;;;;;;;;;4993486;28;94132;-80
2023/06/24 11:44:32;;;;;;;10.60;6.05;;;;;;;;;;5003490;28;92225;-80
2023/06/24 11:47:03;;;;;;;13.27;6.80;;;;;;;;;;5011241;28;92567;-80
2023/06/24 11:49:31;;;;;;;5.13;4.15;;;;;;;;;;5002183;28;95039;-80
2023/06/24 11:51:58;;;;;;;12.68;5.60;;;;;;;;;;4998592;28;92397;-80
2023/06/24 11:54:27;;;;;;;6.47;4.43;;;;;;;;;;5019428;28;92263;-80
2023/06/24 11:56:54;;;;;;;6.95;5.22;;;;;;;;;;5013458;28;92137;-81
2023/06/24 11:59:25;;;;;;;8.30;3.38;;;;;;;;;;4998265;28;92647;-80
2023/06/24 12:01:53;;;;;;;5.80;4.20;;;;;;;;;;4999169;28;93375;-80
2023/06/24 12:04:19;;;;;;;7.28;4.22;;;;;;;;;;4994663;28;94588;-80
2023/06/24 12:06:46;;;;;;;6.10;3.38;;;;;;;;;;4995056;28;92812;-80
2023/06/24 12:09:12;;;;;;;9.75;3.63;;;;;;;;;;5002369;28;92952;-80
2023/06/24 12:11:39;;;;;;;7.78;3.92;;;;;;;;;;5000826;28;93735;-80
2023/06/24 12:14:06;;;;;;;8.25;4.10;;;;;;;;;;4996593;28;94536;-80
2023/06/24 12:16:32;;;;;;;9.43;3.90;;;;;;;;;;5007816;28;92510;-80
2023/06/24 12:18:59;;;;;;;10.73;4.60;;;;;;;;;;5016273;28;92537;-80
2023/06/24 12:21:26;;;;;;;7.78;3.92;;;;;;;;;;5005936;28;92679;-80
2023/06/24 12:23:52;;;;;;;6.93;3.78;;;;;;;;;;5004772;28;92435;-79
2023/06/24 12:26:19;;;;;;;10.10;4.38;;;;;;;;;;4995775;28;92740;-79
2023/06/24 12:28:45;;;;;;;12.32;5.03;;;;;;;;;;4992958;28;92900;-79
2023/06/24 12:31:12;;;;;;;7.03;4.82;;;;;;;;;;4996815;28;92644;-79
2023/06/24 12:33:38;;;;;;;7.07;4.65;;;;;;;;;;4985773;28;92372;-80
2023/06/24 12:36:05;;;;;;;5.82;4.32;;;;;;;;;;5019345;28;92412;-80
2023/06/24 12:38:31;;;;;;;7.22;3.95;;;;;;;;;;5016057;28;94912;-80
2023/06/24 12:40:58;;;;;;;10.20;3.80;;;;;;;;;;5013918;28;93936;-80
2023/06/24 12:43:25;;;;;;;9.15;3.88;;;;;;;;;;5010796;28;92553;-80
2023/06/24 12:45:51;;;;;;;10.90;3.90;;;;;;;;;;5006619;28;92091;-80
2023/06/24 12:48:18;;;;;;;8.65;4.18;;;;;;;;;;5007117;28;93079;-80
2023/06/24 12:50:44;;;;;;;9.23;3.83;;;;;;;;;;5012183;28;93563;-80
2023/06/24 12:53:13;;;;;;;15.50;4.38;;;;;;;;;;5015153;28;92528;-80
2023/06/24 12:55:39;;;;;;;9.30;3.67;;;;;;;;;;5010598;28;92912;-80
2023/06/24 12:58:06;;;;;;;5.80;4.40;;;;;;;;;;5018239;28;92343;-80
2023/06/24 13:00:33;;;;;;;5.28;3.80;;;;;;;;;;5020353;28;92200;-80
2023/06/24 13:03:00;;;;;;;16.38;4.00;;;;;;;;;;5006490;28;94668;-80
2023/06/24 13:05:30;;;;;;;5.53;3.55;;;;;;;;;;5009143;28;94069;-80
2023/06/24 13:08:01;;;;;;;4.15;3.40;;;;;;;;;;4987308;28;94659;-79
2023/06/24 13:10:28;;;;;;;6.90;3.63;;;;;;;;;;5002973;28;92308;-79
2023/06/24 13:12:56;;;;;;;17.63;4.05;;;;;;;;;;5012459;28;92398;-80
2023/06/24 13:15:23;;;;;;;10.18;3.65;;;;;;;;;;5007004;28;92216;-80
2023/06/24 13:17:50;;;;;;;7.18;3.60;;;;;;;;;;5022620;28;92262;-80
2023/06/24 13:20:17;;;;;;;6.18;3.60;;;;;;;;;;5004092;28;92155;-80
2023/06/24 13:22:44;;;;;;;11.70;3.65;;;;;;;;;;5012032;28;92487;-80
2023/06/24 13:25:10;;;;;;;6.32;3.85;;;;;;;;;;5003937;28;93152;-80
2023/06/24 13:27:38;;;;;;;11.57;3.80;;;;;;;;;;5009839;28;94830;-80
2023/06/24 13:30:07;;;;;;;5.80;3.42;;;;;;;;;;4999437;28;92838;-80
2023/06/24 13:32:42;;;;;;;8.20;3.75;;;;;;;;;;4999316;28;93787;-80
2023/06/24 13:35:09;;;;;;;5.28;3.63;;;;;;;;;;4996069;28;94111;-79
2023/06/24 13:37:35;;;;;;;8.70;3.67;;;;;;;;;;5012763;28;92238;-79
2023/06/24 13:40:03;;;;;;;7.43;3.97;;;;;;;;;;5009358;28;92253;-80
2023/06/24 13:42:29;;;;;;;7.18;3.45;;;;;;;;;;5006279;28;92554;-80
2023/06/24 13:44:56;;;;;;;7.25;3.47;;;;;;;;;;5019668;28;92358;-80
2023/06/24 13:47:22;;;;;;;9.68;4.22;;;;;;;;;;5020680;28;92216;-80
2023/06/24 13:49:49;;;;;;;8.00;3.67;;;;;;;;;;5013898;28;94242;-80
2023/06/24 13:52:16;;;;;;;5.00;3.35;;;;;;;;;;5020870;28;94677;-80
2023/06/24 13:54:43;;;;;;;9.00;3.47;;;;;;;;;;5013067;28;92384;-80
2023/06/24 13:57:09;;;;;;;6.32;4.72;;;;;;;;;;5025873;28;92836;-80
2023/06/24 13:59:36;;;;;;;5.28;3.90;;;;;;;;;;5011454;28;92748;-80
2023/06/24 14:02:02;;;;;;;9.55;4.20;;;;;;;;;;5014244;28;92438;-80
2023/06/24 14:04:29;;;;;;;6.47;3.38;;;;;;;;;;5013276;28;92258;-80
2023/06/24 14:06:56;;;;;;;4.10;3.50;;;;;;;;;;5017061;28;93120;-80
2023/06/24 14:09:22;;;;;;;3.78;3.47;;;;;;;;;;5015236;28;93406;-80
2023/06/24 14:11:49;;;;;;;5.47;3.67;;;;;;;;;;5011203;28;92454;-80
2023/06/24 14:14:15;;;;;;;7.80;3.00;;;;;;;;;;5016189;28;92571;-80
2023/06/24 14:16:42;;;;;;;4.13;3.60;;;;;;;;;;4995025;28;94605;-79
2023/06/24 14:19:09;;;;;;;7.18;3.00;;;;;;;;;;5001604;28;95322;-80
2023/06/24 14:21:38;;;;;;;4.95;3.47;;;;;;;;;;5014521;28;92413;-80
2023/06/24 14:24:06;;;;;;;6.72;3.28;;;;;;;;;;5008725;28;92192;-80
2023/06/24 14:26:42;;;;;;;5.32;3.92;;;;;;;;;;5016788;28;93031;-80
2023/06/24 14:29:08;;;;;;;4.30;3.58;;;;;;;;;;5007305;28;93159;-80
2023/06/24 14:31:35;;;;;;;7.90;4.15;;;;;;;;;;5017343;28;92317;-80
2023/06/24 14:34:01;;;;;;;6.35;3.70;;;;;;;;;;5014843;28;93889;-80
2023/06/24 14:36:28;;;;;;;10.02;3.50;;;;;;;;;;5010029;28;92515;-80
2023/06/24 14:38:54;;;;;;;6.72;3.63;;;;;;;;;;4992023;28;93692;-80
2023/06/24 14:41:21;;;;;;;5.10;3.00;;;;;;;;;;5001389;28;94832;-80
2023/06/24 14:43:48;;;;;;;4.45;3.40;;;;;;;;;;5005879;28;94062;-80
2023/06/24 14:46:14;;;;;;;8.27;3.40;;;;;;;;;;5015477;28;93686;-80